This is the latest recevied weather packets stored in our database for station/object TG9ADI-20. If no packets are shown the sender has not sent any weather packets the latest 10 day(s).
| Time | Temp. | Humidity | Pressure | Rain* | Wind** | Luminosity | Snow |
|---|---|---|---|---|---|---|---|
| 1777645438 | 20° C | 82% | 1014 hPa | 0 mm | - | - | - |
| 1777644837 | 20.56° C | 73% | 1013 hPa | 0 mm | - | - | - |
| 1777644236 | 19.44° C | 83% | 1013 hPa | 0 mm | - | - | - |
| 1777643636 | 19.44° C | 83% | 1013 hPa | 0 mm | - | - | - |
| 1777643035 | 19.44° C | 83% | 1013 hPa | 0 mm | - | - | - |
| 1777642435 | 19.44° C | 83% | 1013 hPa | 0 mm | - | - | - |
| 1777641834 | 17.78° C | 92% | 1014 hPa | 0 mm | - | - | - |
| 1777641233 | 17.78° C | 92% | 1014 hPa | 0 mm | - | - | - |
| 1777640633 | 18.89° C | 88% | 1014 hPa | 0 mm | - | - | - |
| 1777640032 | 18.89° C | 88% | 1014 hPa | 0 mm | - | - | - |
| 1777639431 | 19.44° C | 83% | 1014 hPa | 0 mm | - | - | - |
| 1777638831 | 16.67° C | 93% | 1013 hPa | 0 mm | - | - | - |
| 1777638230 | 17.22° C | 92% | 1013 hPa | 0 mm | - | - | - |
| 1777637630 | 17.78° C | 92% | 1013 hPa | 0 mm | - | - | - |
| 1777637029 | 18.89° C | 88% | 1014 hPa | 0 mm | - | - | - |
| 1777636428 | 18.89° C | 88% | 1014 hPa | 0 mm | - | - | - |
| 1777635828 | 19.44° C | 83% | 1014 hPa | 0 mm | - | - | - |
| 1777635227 | 16.11° C | 96% | 1014 hPa | 0 mm | - | - | - |
| 1777634626 | 16.67° C | 96% | 1012 hPa | 0 mm | - | - | - |
| 1777634026 | 17.22° C | 95% | 1012 hPa | 0 mm | - | - | - |
| 1777633425 | 18.33° C | 93% | 1012 hPa | 0 mm | - | - | - |
| 1777632825 | 17.78° C | 92% | 1012 hPa | 0 mm | - | - | - |
| 1777632224 | 17.78° C | 92% | 1012 hPa | 0 mm | - | - | - |
| 1777631623 | 17.78° C | 91% | 1012 hPa | 0 mm | - | - | - |
| 1777631023 | 18.33° C | 91% | 1012 hPa | 0 mm | - | - | - |
* Rain latest hour (hover to see other rain measurements)
** Current wind speed in m/s (hover to see current wind gust speed)